Detall de PIREP

Printer-friendly versionPDF version

[2011/08/15 09:43:00]
Flight IATA:CT1004
Pilot Number:026
Company ICAO:CAT
Aircraft Type:DC85/A
PAX:132
Departing Airport: TNCM
Destination Airport: LEBL
Alternate Airport:LEGE
Online: VATSIM
Route:MNOLO A516 RKDIA 2350N 2640N 3130N 3520N LUTAK DCT PORLI UN870 PONEN/N0300F320 UW800 CASPE
Flight Level:F360
No Slew and time accel
No pause
Crash detect
Detect pilot in Cockpit between each 30 and 45 minutes
09:43 Zero fuel Weight: 178420 Lbs, Fuel Weight: 119949 Lbs
09:43 VATSIM:TNCM 150800Z 12005KT 9999 FEW022 28/24 Q1013
09:43 VATSIM:LEBL 150930Z 10008KT 060V130 CAVOK 27/19 Q1015 NOSIG
09:44 VOICE CATALONIAN / SUMMER CHARTER
09:51 Parking Brakes off
09:59 Take-off
09:59 Take off Weight: 296857 Lbs
09:59 Wind: 112º @ 007 Knots Heading: 082º
09:59 POS N18º 02´ 32´´ W063º 05´ 47´´
09:59 Flaps:3 at 169 Knots
09:59 Gear Up: 167 Knots
10:00 Flaps:2 at 172 Knots
10:00 Flaps:1 at 157 Knots
10:01 Flaps:0 at 175 Knots
10:14 Wind:085º@023 Knots Heading: 044º Ground Speed: 383 Knots Altitude 22801 ft
10:29 Wind:070º@018 Knots Heading: 048º Ground Speed: 445 Knots Altitude 30810 ft
10:44 Wind:068º@015 Knots Heading: 043º Ground Speed: 445 Knots Altitude 31981 ft
10:59 Wind:060º@012 Knots Heading: 074º Ground Speed: 445 Knots Altitude 31975 ft
11:14 Wind:068º@011 Knots Heading: 074º Ground Speed: 449 Knots Altitude 31978 ft
11:22 Flaps:1 at 286 Knots
11:22 Flaps:2 at 286 Knots
11:22 Flaps:0 at 285 Knots
11:29 Wind:068º@017 Knots Heading: 077º Ground Speed: 444 Knots Altitude 31978 ft
11:44 Wind:065º@013 Knots Heading: 076º Ground Speed: 450 Knots Altitude 31978 ft
11:59 Wind:062º@014 Knots Heading: 084º Ground Speed: 450 Knots Altitude 31975 ft
12:14 Wind:067º@011 Knots Heading: 068º Ground Speed: 451 Knots Altitude 31978 ft
12:29 Wind:072º@018 Knots Heading: 069º Ground Speed: 449 Knots Altitude 31988 ft
12:44 Wind:063º@023 Knots Heading: 071º Ground Speed: 446 Knots Altitude 31988 ft
12:59 Wind:074º@015 Knots Heading: 072º Ground Speed: 461 Knots Altitude 32017 ft
13:14 Wind:060º@019 Knots Heading: 072º Ground Speed: 458 Knots Altitude 32040 ft
13:29 Wind:056º@018 Knots Heading: 057º Ground Speed: 459 Knots Altitude 32060 ft
13:44 Wind:089º@016 Knots Heading: 062º Ground Speed: 465 Knots Altitude 32083 ft
13:59 Wind:079º@015 Knots Heading: 063º Ground Speed: 463 Knots Altitude 32076 ft
14:14 Wind:124º@010 Knots Heading: 063º Ground Speed: 472 Knots Altitude 32106 ft
14:29 Wind:121º@009 Knots Heading: 064º Ground Speed: 475 Knots Altitude 32112 ft
14:44 Wind:129º@008 Knots Heading: 063º Ground Speed: 465 Knots Altitude 34120 ft
14:59 Wind:139º@009 Knots Heading: 064º Ground Speed: 475 Knots Altitude 34127 ft
15:14 Wind:134º@006 Knots Heading: 065º Ground Speed: 475 Knots Altitude 34124 ft
15:29 Wind:073º@009 Knots Heading: 066º Ground Speed: 470 Knots Altitude 34117 ft
15:44 Wind:044º@027 Knots Heading: 067º Ground Speed: 455 Knots Altitude 34101 ft
15:59 Wind:032º@036 Knots Heading: 058º Ground Speed: 447 Knots Altitude 34091 ft
16:14 Wind:017º@029 Knots Heading: 060º Ground Speed: 459 Knots Altitude 34068 ft
16:29 Wind:336º@020 Knots Heading: 065º Ground Speed: 463 Knots Altitude 35442 ft
16:29 TOC
16:29 Fuel Weight: 33369 Lb
16:44 Wind:306º@029 Knots Heading: 062º Ground Speed: 501 Knots Altitude 36046 ft
16:59 Wind:329º@044 Knots Heading: 063º Ground Speed: 508 Knots Altitude 36069 ft
17:14 Wind:305º@031 Knots Heading: 065º Ground Speed: 507 Knots Altitude 36043 ft
17:29 Wind:246º@021 Knots Heading: 074º Ground Speed: 517 Knots Altitude 36085 ft
17:44 Wind:298º@018 Knots Heading: 072º Ground Speed: 509 Knots Altitude 36059 ft
17:45 TOD
17:45 Fuel Weight: 17795 Lb
17:59 Wind:125º@004 Knots Heading: 081º Ground Speed: 366 Knots Altitude 23884 ft
18:14 Wind:130º@011 Knots Heading: 117º Ground Speed: 221 Knots Altitude 6302 ft
18:17 Gear Down: 214 Knots
18:17 Flaps:1 at 196 Knots
18:19 Flaps:2 at 133 Knots
18:20 Flaps:3 at 136 Knots
18:20 Flaps:4 at 134 Knots
18:21 TouchDown:Rate -428 ft/min Speed: 118 Knots
18:21 VATSIM:LEBL 151800Z VRB02KT CAVOK 27/17 Q1016 NOSIG
18:21 Land
18:21 Wind:139º@007 Knots
18:21 Heading: 245º
18:21 Flight Duration: 08:22
18:21 Landing Weight: 192925 Lbs
18:21 POS N41º 17´ 58´´ E002º 05´ 06´´
18:27 Parking brakes on
18:27 Block to Block Duration: 08:36
18:27 Final Fuel: 13913 Lbls
18:27 Spent Fuel: 106036 Lbls
18:27 Flight Length: 3534 NM
18:27 TOD Land Length: 197 NM

Exportar CSV

Powered by Drupal - Modified by Danger4k